Time;durP1;ratioP1;P1;durP2;ratioP2;P2;SDS_P1;SDS_P2;PMS_P1;PMS_P2;Temp;Humidity;BMP_temperature;BMP_pressure;BME280_temperature;BME280_humidity;BME280_pressure;Samples;Min_cycle;Max_cycle;Signal;HPM_P1;HPM_P2
2022/08/20 00:00:21;;;;;;;2.40;2.17;;;;;;;18.01;81.29;99389.30;1826444;78;21493;-75
2022/08/20 00:02:55;;;;;;;5.92;2.08;;;;;;;17.96;81.37;99392.27;1820903;78;22148;-76
2022/08/20 00:05:27;;;;;;;2.05;1.87;;;;;;;17.93;81.42;99392.47;1821288;78;21175;-75
2022/08/20 00:07:54;;;;;;;5.67;2.17;;;;;;;17.92;81.55;99396.56;1821149;78;21041;-76
2022/08/20 00:10:21;;;;;;;6.25;2.27;;;;;;;17.88;81.52;99399.91;1821173;78;21017;-76
2022/08/20 00:12:49;;;;;;;3.20;1.95;;;;;;;17.86;81.35;99407.61;1821039;78;20971;-76
2022/08/20 00:15:20;;;;;;;2.92;2.20;;;;;;;17.83;81.33;99395.34;1820885;78;21545;-76
2022/08/20 00:17:49;;;;;;;2.00;1.90;;;;;;;17.82;81.51;99393.17;1820886;78;21938;-76
2022/08/20 00:20:16;;;;;;;1.90;1.80;;;;;;;17.80;82.18;99393.76;1820903;78;21009;-75
2022/08/20 00:22:43;;;;;;;1.95;1.80;;;;;;;17.77;82.57;99398.41;1821217;78;20913;-76
2022/08/20 00:25:10;;;;;;;2.05;1.90;;;;;;;17.75;82.85;99402.52;1821121;78;20982;-76
2022/08/20 00:27:38;;;;;;;3.40;1.80;;;;;;;17.75;82.96;99400.31;1821255;78;21137;-76
2022/08/20 00:30:07;;;;;;;2.75;1.90;;;;;;;17.75;82.96;99402.52;1813147;78;21099;-75
2022/08/20 00:32:47;;;;;;;2.67;2.20;;;;;;;17.73;82.74;99401.75;1776562;80;21111;-76
2022/08/20 00:35:17;;;;;;;2.67;2.47;;;;;;;17.72;83.16;99404.50;1777044;80;21633;-76
2022/08/20 00:37:44;;;;;;;2.17;2.00;;;;;;;17.69;83.32;99406.91;1759662;81;21063;-76
2022/08/20 00:40:13;;;;;;;2.62;1.82;;;;;;;17.69;83.25;99406.91;1760065;80;21097;-75
2022/08/20 00:42:42;;;;;;;3.42;2.02;;;;;;;17.65;83.09;99406.72;1776610;80;21040;-76
2022/08/20 00:45:10;;;;;;;2.65;2.08;;;;;;;17.60;82.92;99408.83;1776252;80;21048;-76
2022/08/20 00:47:40;;;;;;;2.40;2.08;;;;;;;17.55;82.79;99417.59;1776878;80;21091;-75
2022/08/20 00:50:07;;;;;;;5.35;2.25;;;;;;;17.51;82.57;99418.27;1776701;80;21025;-76
2022/08/20 00:52:34;;;;;;;2.92;2.10;;;;;;;17.49;82.43;99422.00;1776807;80;21857;-76
2022/08/20 00:55:02;;;;;;;3.55;2.40;;;;;;;17.45;82.62;99418.69;1776436;80;21045;-76
2022/08/20 00:57:33;;;;;;;2.62;2.02;;;;;;;17.43;82.62;99418.78;1776868;80;21714;-76
2022/08/20 01:00:01;;;;;;;3.95;2.40;;;;;;;17.44;82.66;99416.48;1776069;80;21605;-76
2022/08/20 01:02:28;;;;;;;2.98;2.02;;;;;;;17.45;82.82;99410.22;1764360;81;21499;-76
2022/08/20 01:04:55;;;;;;;2.50;2.02;;;;;;;17.44;82.82;99409.83;1793713;80;21172;-76
2022/08/20 01:07:31;;;;;;;2.50;2.00;;;;;;;17.43;82.78;99404.16;1818669;78;21007;-76
2022/08/20 01:09:51;;;;;;;2.85;1.95;;;;;;;17.39;82.68;99409.28;1817518;78;21101;-76
2022/08/20 01:12:18;;;;;;;2.83;1.80;;;;;;;17.39;82.70;99407.10;1818608;78;21592;-75
2022/08/20 01:14:45;;;;;;;2.22;1.90;;;;;;;17.39;82.81;99406.62;1819015;78;20955;-76
2022/08/20 01:17:16;;;;;;;2.90;1.82;;;;;;;17.38;83.06;99403.60;1791371;78;21106;-75
2022/08/20 01:19:47;;;;;;;3.90;2.17;;;;;;;17.36;83.25;99403.31;1818614;78;21054;-76
2022/08/20 01:25:11;;;;;;;3.27;1.90;;;;;;;17.32;83.11;99407.97;1818569;78;21636;-76
2022/08/20 01:27:38;;;;;;;2.95;1.90;;;;;;;17.29;83.08;99405.50;1818659;78;20991;-76
2022/08/20 01:30:06;;;;;;;2.05;1.95;;;;;;;17.25;83.15;99400.02;1818945;78;21581;-76
2022/08/20 01:32:33;;;;;;;2.17;1.65;;;;;;;17.23;83.05;99393.92;1818445;78;21053;-76
2022/08/20 01:35:00;;;;;;;4.55;1.80;;;;;;;17.20;83.11;99392.81;1818759;78;21553;-76
2022/08/20 01:37:26;;;;;;;2.85;1.90;;;;;;;17.19;83.02;99393.27;1818710;78;21054;-75
2022/08/20 01:39:53;;;;;;;5.62;2.37;;;;;;;17.18;83.05;99390.71;1819007;78;20979;-76
2022/08/20 01:42:36;;;;;;;3.62;2.40;;;;;;;17.15;83.27;99394.92;1791364;78;21478;-76
2022/08/20 01:45:05;;;;;;;3.25;2.50;;;;;;;17.10;84.03;99384.57;1818595;78;22091;-76
2022/08/20 01:47:32;;;;;;;3.80;2.33;;;;;;;17.08;84.72;99387.33;1818613;78;20960;-76
2022/08/20 01:50:06;;;;;;;2.72;2.12;;;;;;;17.08;84.99;99383.34;1818671;78;20991;-76
2022/08/20 01:52:56;;;;;;;2.20;2.10;;;;;;;17.07;84.97;99382.10;1818548;78;21029;-76
2022/08/20 01:55:22;;;;;;;3.85;2.37;;;;;;;17.05;84.94;99390.17;1818611;78;21152;-76
2022/08/20 01:57:49;;;;;;;2.52;2.30;;;;;;;17.04;84.76;99388.45;1791748;78;21318;-76
2022/08/20 02:00:17;;;;;;;2.85;2.25;;;;;;;17.03;84.93;99392.08;1790217;78;21478;-75
2022/08/20 02:02:44;;;;;;;2.85;1.95;;;;;;;17.00;85.08;99390.94;1777067;80;21078;-76
2022/08/20 02:05:11;;;;;;;1.98;1.87;;;;;;;16.97;84.97;99395.59;1780163;80;21101;-76
2022/08/20 02:07:37;;;;;;;3.55;1.92;;;;;;;16.93;84.80;99400.27;1780149;80;21586;-76
2022/08/20 02:10:08;;;;;;;5.42;2.40;;;;;;;16.90;84.64;99393.31;1780145;80;21003;-75
2022/08/20 02:12:38;;;;;;;3.62;2.40;;;;;;;16.90;84.74;99389.81;1780085;80;21062;-76
2022/08/20 02:15:08;;;;;;;2.45;2.25;;;;;;;16.84;85.21;99389.70;1780343;80;21054;-76
2022/08/20 02:17:36;;;;;;;2.20;1.75;;;;;;;16.84;85.43;99396.80;1780548;80;21120;-76
2022/08/20 02:20:09;;;;;;;7.87;2.42;;;;;;;16.82;85.16;99394.72;1780287;80;21543;-75
2022/08/20 02:22:46;;;;;;;3.58;2.08;;;;;;;16.82;85.05;99391.58;1780224;80;21014;-76
2022/08/20 02:25:13;;;;;;;2.30;2.10;;;;;;;16.81;84.68;99403.17;1780134;80;21592;-76
2022/08/20 02:27:42;;;;;;;2.52;2.33;;;;;;;16.78;84.22;99393.19;1780176;80;21546;-76
2022/08/20 02:30:14;;;;;;;3.58;2.15;;;;;;;16.78;83.92;99393.19;1780145;80;21011;-76
2022/08/20 02:32:41;;;;;;;2.47;2.27;;;;;;;16.76;83.37;99389.33;1780323;80;21122;-76
2022/08/20 02:35:09;;;;;;;6.87;2.90;;;;;;;16.76;83.95;99387.12;1780501;80;21077;-76
2022/08/20 02:37:36;;;;;;;2.80;2.60;;;;;;;16.72;84.92;99392.63;1780132;80;21066;-75
2022/08/20 02:40:04;;;;;;;3.52;2.83;;;;;;;16.68;85.52;99384.96;1790096;78;22282;-76
2022/08/20 02:42:31;;;;;;;3.67;2.50;;;;;;;16.68;85.70;99386.28;1786846;80;21005;-76
2022/08/20 02:44:57;;;;;;;2.60;2.40;;;;;;;16.67;86.08;99387.22;1786930;80;21061;-76
2022/08/20 02:47:26;;;;;;;5.67;2.80;;;;;;;16.66;86.38;99381.06;1787209;80;21626;-76
2022/08/20 02:49:53;;;;;;;2.72;2.47;;;;;;;16.66;86.67;99383.72;1786416;80;21119;-75
2022/08/20 02:52:20;;;;;;;2.47;2.02;;;;;;;16.68;87.31;99380.48;1787220;80;21040;-76
2022/08/20 02:54:52;;;;;;;3.27;2.33;;;;;;;16.71;87.97;99379.46;1786656;80;21566;-76
2022/08/20 02:57:19;;;;;;;3.52;2.00;;;;;;;16.69;88.12;99378.23;1786242;80;21140;-76
2022/08/20 02:59:46;;;;;;;2.50;2.15;;;;;;;16.70;88.24;99380.39;1786935;80;21716;-76
2022/08/20 03:02:14;;;;;;;4.15;2.17;;;;;;;16.71;88.26;99384.77;1783823;80;21733;-75
2022/08/20 03:04:41;;;;;;;4.97;2.70;;;;;;;16.74;88.18;99387.70;1783900;80;21063;-76
2022/08/20 03:07:10;;;;;;;3.15;2.20;;;;;;;16.76;88.25;99388.45;1784520;80;21542;-76
2022/08/20 03:09:37;;;;;;;3.25;2.50;;;;;;;16.77;88.20;99387.52;1784800;80;21992;-76
2022/08/20 03:12:06;;;;;;;6.55;2.72;;;;;;;16.78;88.74;99390.53;1784527;80;21636;-77
2022/08/20 03:14:33;;;;;;;2.72;2.52;;;;;;;16.80;89.13;99383.34;1784873;80;21152;-75
2022/08/20 03:17:00;;;;;;;3.47;2.05;;;;;;;16.85;89.11;99387.92;1784591;80;21047;-76
2022/08/20 03:19:26;;;;;;;5.70;2.30;;;;;;;16.88;89.12;99389.06;1784748;80;21499;-76
2022/08/20 03:21:53;;;;;;;3.67;2.92;;;;;;;16.88;89.09;99388.58;1784937;80;21504;-76
2022/08/20 03:24:19;;;;;;;3.25;2.40;;;;;;;16.90;89.31;99384.50;1784257;79;21115;-77
2022/08/20 03:26:46;;;;;;;2.35;2.10;;;;;;;16.94;89.78;99386.00;1784549;80;21103;-76
2022/08/20 03:29:12;;;;;;;4.10;2.00;;;;;;;16.96;90.04;99389.41;1784686;80;21079;-76
2022/08/20 03:31:39;;;;;;;3.77;2.10;;;;;;;16.97;90.14;99383.64;1784544;80;21475;-77
2022/08/20 03:34:06;;;;;;;2.25;2.08;;;;;;;16.99;90.02;99382.58;1784406;80;21239;-76
2022/08/20 03:36:33;;;;;;;2.98;2.45;;;;;;;17.02;90.10;99382.39;1784777;80;20992;-76
2022/08/20 03:39:01;;;;;;;6.75;3.33;;;;;;;17.05;90.19;99380.87;1784883;80;21226;-76
2022/08/20 03:41:28;;;;;;;2.95;2.75;;;;;;;17.08;90.34;99376.69;1784724;80;21020;-76
2022/08/20 03:43:55;;;;;;;7.87;3.85;;;;;;;17.12;90.79;99379.16;1784898;80;21072;-76
2022/08/20 03:46:21;;;;;;;3.25;2.27;;;;;;;17.17;91.12;99377.91;1784742;80;21122;-76
2022/08/20 03:48:48;;;;;;;5.50;2.87;;;;;;;17.23;91.67;99379.30;1784902;80;21496;-76
2022/08/20 03:51:15;;;;;;;3.65;2.60;;;;;;;17.26;91.77;99383.09;1784646;80;21032;-76
2022/08/20 03:53:41;;;;;;;2.40;2.20;;;;;;;17.29;92.16;99382.91;1784626;80;21084;-77
2022/08/20 03:56:08;;;;;;;3.08;2.30;;;;;;;17.33;92.37;99384.44;1784820;80;21041;-76
2022/08/20 03:58:34;;;;;;;3.40;2.27;;;;;;;17.37;92.79;99384.59;1784519;80;21084;-76
2022/08/20 04:01:01;;;;;;;3.72;2.50;;;;;;;17.41;92.89;99389.23;1784698;80;20992;-76
2022/08/20 04:03:28;;;;;;;3.67;2.45;;;;;;;17.43;92.89;99386.87;1784737;80;21020;-76
2022/08/20 04:05:54;;;;;;;2.40;2.20;;;;;;;17.48;92.84;99395.01;1788142;78;21005;-76
2022/08/20 04:08:28;;;;;;;2.20;2.00;;;;;;;17.51;92.75;99394.81;1813868;78;21838;-76
2022/08/20 04:10:59;;;;;;;2.33;2.13;;;;;;;17.56;92.90;99394.88;1813435;79;21249;-76
2022/08/20 04:13:27;;;;;;;3.72;2.05;;;;;;;17.59;93.01;99391.17;1813380;79;21529;-76
2022/08/20 04:15:54;;;;;;;6.20;2.27;;;;;;;17.61;93.05;99394.58;1813533;79;21549;-76
2022/08/20 04:18:23;;;;;;;2.17;2.08;;;;;;;17.64;93.02;99393.05;1813512;79;21568;-76
2022/08/20 04:20:49;;;;;;;2.98;1.98;;;;;;;17.67;92.92;99394.19;1813403;79;21019;-75
2022/08/20 04:23:16;;;;;;;3.75;2.10;;;;;;;17.71;92.96;99394.34;1813427;79;22659;-76
2022/08/20 04:25:43;;;;;;;5.12;2.40;;;;;;;17.76;92.84;99390.91;1813084;79;20997;-76
2022/08/20 04:28:25;;;;;;;2.50;2.20;;;;;;;17.82;93.15;99394.98;1813590;79;21046;-76
2022/08/20 04:30:53;;;;;;;5.22;2.45;;;;;;;17.86;93.19;99392.48;1813096;79;21081;-76
2022/08/20 04:33:20;;;;;;;2.62;2.42;;;;;;;17.91;93.20;99393.55;1813677;79;21010;-76
2022/08/20 04:35:47;;;;;;;4.22;2.08;;;;;;;17.95;93.00;99392.38;1813249;79;21098;-76
2022/08/20 04:38:16;;;;;;;2.37;2.17;;;;;;;17.97;92.78;99390.45;1813082;79;22348;-76
2022/08/20 04:40:52;;;;;;;3.10;2.37;;;;;;;18.00;92.54;99390.25;1813461;78;21030;-76
2022/08/20 04:43:22;;;;;;;3.17;2.55;;;;;;;18.05;92.49;99384.13;1759150;80;21000;-76
2022/08/20 04:45:50;;;;;;;3.35;2.10;;;;;;;18.08;92.53;99387.92;1787265;80;21082;-76
2022/08/20 04:48:17;;;;;;;3.50;2.80;;;;;;;18.13;92.52;99383.63;1787560;80;21845;-76
2022/08/20 04:50:45;;;;;;;5.42;2.47;;;;;;;18.18;92.53;99383.67;1754583;81;20928;-76
2022/08/20 04:53:13;;;;;;;2.10;2.00;;;;;;;18.21;92.18;99375.97;1787783;80;21039;-76
2022/08/20 04:55:45;;;;;;;3.17;2.87;;;;;;;18.27;91.98;99378.19;1754377;81;21068;-76
2022/08/20 04:58:13;;;;;;;3.87;2.98;;;;;;;18.33;91.83;99374.27;1787113;80;21126;-76
2022/08/20 05:00:39;;;;;;;4.53;2.70;;;;;;;18.36;91.86;99375.40;1754572;81;21793;-76
2022/08/20 05:03:06;;;;;;;2.52;2.33;;;;;;;18.39;91.68;99371.16;1787200;80;21003;-76
2022/08/20 05:05:34;;;;;;;4.53;2.20;;;;;;;18.43;91.33;99378.00;1733941;81;21000;-77
2022/08/20 05:08:01;;;;;;;2.83;2.33;;;;;;;18.48;91.20;99373.20;1751210;81;21062;-76
2022/08/20 05:10:28;;;;;;;2.67;2.05;;;;;;;18.52;91.18;99377.84;1751208;81;21647;-76
2022/08/20 05:12:56;;;;;;;3.60;2.30;;;;;;;18.54;90.88;99374.12;1751174;81;21051;-75
2022/08/20 05:15:23;;;;;;;2.50;2.30;;;;;;;18.58;90.66;99374.75;1764467;80;21059;-76
2022/08/20 05:17:59;;;;;;;6.97;2.00;;;;;;;18.61;90.51;99369.21;1751469;81;21011;-77
2022/08/20 05:20:30;;;;;;;3.17;2.20;;;;;;;18.65;90.18;99368.52;1764789;81;21107;-76
2022/08/20 05:22:54;;;;;;;2.52;2.20;;;;;;;18.70;89.95;99363.70;1750756;81;21632;-76
2022/08/20 05:25:21;;;;;;;2.72;2.00;;;;;;;18.73;89.71;99365.67;1764940;81;21130;-76
2022/08/20 05:27:48;;;;;;;2.10;1.95;;;;;;;18.77;89.51;99366.30;1750987;81;21031;-76
2022/08/20 05:30:14;;;;;;;2.12;1.95;;;;;;;18.81;89.29;99363.80;1751528;81;21137;-76
2022/08/20 05:32:41;;;;;;;2.50;2.15;;;;;;;18.84;89.11;99355.59;1751094;81;21503;-77
2022/08/20 05:35:09;;;;;;;2.15;2.05;;;;;;;18.89;89.02;99345.95;1764853;80;21054;-76
2022/08/20 05:37:36;;;;;;;1.90;1.80;;;;;;;18.97;88.79;99341.41;1751282;81;21495;-76
2022/08/20 05:40:10;;;;;;;1.98;1.87;;;;;;;19.03;88.36;99343.61;1751210;81;21440;-76
2022/08/20 05:42:37;;;;;;;2.72;2.05;;;;;;;19.09;88.27;99339.17;1750598;81;21106;-76
2022/08/20 05:45:04;;;;;;;3.17;2.02;;;;;;;19.19;88.02;99336.20;1764907;81;21064;-76
2022/08/20 05:47:31;;;;;;;1.90;1.80;;;;;;;19.31;87.71;99337.95;1751510;81;21011;-76
2022/08/20 05:49:58;;;;;;;7.60;1.90;;;;;;;19.43;87.56;99331.35;1764725;80;21479;-77
2022/08/20 05:52:25;;;;;;;1.90;1.80;;;;;;;19.57;87.17;99339.66;1751583;81;21035;-76
2022/08/20 05:54:53;;;;;;;2.00;1.65;;;;;;;19.70;86.78;99342.27;1751134;81;21051;-76
2022/08/20 05:57:19;;;;;;;2.37;1.90;;;;;;;19.81;86.45;99347.19;1765138;80;22232;-76
2022/08/20 05:59:46;;;;;;;3.05;1.62;;;;;;;19.93;85.69;99342.73;1764519;81;21075;-76
2022/08/20 06:04:50;;;;;;;1.62;1.50;;;;;;;20.11;83.99;99347.16;1664481;85;21101;-76
2022/08/20 06:07:17;;;;;;;1.50;1.40;;;;;;;20.19;83.68;99346.55;1765224;81;21070;-76
2022/08/20 06:09:43;;;;;;;1.77;1.25;;;;;;;20.27;83.11;99345.48;1768219;80;21069;-76
2022/08/20 06:12:11;;;;;;;2.87;1.42;;;;;;;20.35;82.72;99339.05;1764780;81;21049;-76
2022/08/20 06:14:38;;;;;;;3.83;1.40;;;;;;;20.44;81.89;99338.81;1765145;81;21097;-76
2022/08/20 06:17:08;;;;;;;1.72;1.40;;;;;;;20.49;81.73;99346.48;1764830;81;21006;-76
2022/08/20 06:19:36;;;;;;;1.57;1.35;;;;;;;20.54;80.76;99348.30;1764414;81;21050;-76
2022/08/20 06:22:03;;;;;;;4.53;1.30;;;;;;;20.55;80.37;99350.02;1764843;81;21059;-75
2022/08/20 06:24:30;;;;;;;1.50;1.40;;;;;;;20.60;80.26;99351.84;1765041;81;21545;-76
2022/08/20 06:26:58;;;;;;;1.32;1.20;;;;;;;20.64;79.86;99354.65;1765372;81;21267;-76
2022/08/20 06:29:25;;;;;;;2.12;1.37;;;;;;;20.67;79.48;99353.08;1764715;81;21046;-76
2022/08/20 06:31:52;;;;;;;1.20;1.10;;;;;;;20.67;79.20;99358.42;1764897;81;21097;-76
2022/08/20 06:34:18;;;;;;;1.70;1.25;;;;;;;20.66;78.86;99354.06;1765024;81;21117;-76
2022/08/20 06:36:45;;;;;;;10.72;1.35;;;;;;;20.69;78.85;99359.64;1765047;81;21154;-76
2022/08/20 06:39:15;;;;;;;2.50;1.25;;;;;;;20.72;79.01;99362.91;1764777;81;21220;-76
2022/08/20 06:41:42;;;;;;;2.55;1.17;;;;;;;20.75;78.92;99361.34;1764810;81;21010;-76
2022/08/20 06:44:08;;;;;;;4.60;1.30;;;;;;;20.74;78.26;99364.98;1764854;81;21207;-75
2022/08/20 06:46:36;;;;;;;1.40;1.30;;;;;;;20.71;78.19;99365.25;1765010;81;21138;-76
2022/08/20 06:49:06;;;;;;;2.17;1.45;;;;;;;20.68;78.04;99361.94;1765104;81;21078;-77
2022/08/20 06:51:33;;;;;;;1.42;1.12;;;;;;;20.66;77.95;99354.06;1764094;80;21201;-76
2022/08/20 06:53:59;;;;;;;1.47;1.40;;;;;;;20.67;78.01;99357.58;1764879;81;21054;-76
2022/08/20 06:56:26;;;;;;;2.05;1.32;;;;;;;20.66;77.75;99363.42;1764845;81;21575;-76
2022/08/20 06:58:53;;;;;;;2.12;1.40;;;;;;;20.67;77.80;99366.44;1765017;81;21620;-76
2022/08/20 07:01:20;;;;;;;1.20;1.10;;;;;;;20.67;77.69;99358.92;1765105;81;21065;-77
2022/08/20 07:03:48;;;;;;;1.60;0.90;;;;;;;20.71;78.02;99357.22;1765317;81;21114;-76
2022/08/20 07:06:16;;;;;;;2.60;1.57;;;;;;;20.77;77.98;99360.73;1756948;81;21047;-76
2022/08/20 07:08:43;;;;;;;2.45;1.05;;;;;;;20.83;77.96;99361.20;1756927;81;20991;-76
2022/08/20 07:11:10;;;;;;;1.00;1.00;;;;;;;20.86;77.43;99360.47;1757005;81;21070;-76
2022/08/20 07:13:36;;;;;;;1.25;1.00;;;;;;;20.90;77.14;99358.43;1784169;80;21130;-76
2022/08/20 07:16:04;;;;;;;1.00;1.00;;;;;;;20.93;76.76;99358.16;1808549;79;21778;-76
2022/08/20 07:18:31;;;;;;;3.65;1.12;;;;;;;20.97;76.99;99364.98;1808574;79;21038;-76
2022/08/20 07:20:57;;;;;;;1.10;0.90;;;;;;;21.04;76.86;99367.52;1808535;79;21562;-77
2022/08/20 07:23:24;;;;;;;3.20;1.25;;;;;;;21.12;76.51;99361.56;1808822;79;21051;-76
2022/08/20 07:25:51;;;;;;;0.93;0.93;;;;;;;21.20;76.15;99367.61;1808611;79;21232;-76
2022/08/20 07:28:21;;;;;;;1.47;1.27;;;;;;;21.25;76.09;99367.62;1809153;79;21143;-76
2022/08/20 07:33:33;;;;;;;2.85;1.17;;;;;;;21.38;75.78;99374.13;1808874;79;21052;-76
2022/08/20 07:36:02;;;;;;;2.72;1.10;;;;;;;21.47;75.73;99375.27;1808748;79;21074;-75
2022/08/20 07:38:29;;;;;;;1.12;1.00;;;;;;;21.51;74.90;99369.50;1808988;79;20992;-76
2022/08/20 07:41:06;;;;;;;1.30;1.20;;;;;;;21.52;74.62;99375.23;1808816;79;21111;-77
2022/08/20 07:43:33;;;;;;;2.98;1.20;;;;;;;21.58;75.08;99369.01;1808798;79;21553;-76
2022/08/20 07:46:01;;;;;;;1.70;1.05;;;;;;;21.68;75.03;99369.94;1809114;79;21592;-76
2022/08/20 07:48:29;;;;;;;1.80;1.10;;;;;;;21.74;74.21;99368.10;1808748;79;22255;-77
2022/08/20 07:50:57;;;;;;;2.22;1.10;;;;;;;21.78;74.24;99370.87;1809060;79;21083;-76
2022/08/20 07:53:25;;;;;;;1.15;1.00;;;;;;;21.86;73.41;99372.42;1809096;79;21241;-77
2022/08/20 07:55:52;;;;;;;2.15;1.20;;;;;;;21.92;73.73;99364.34;1809022;79;21038;-76
2022/08/20 07:58:22;;;;;;;1.25;0.98;;;;;;;21.98;73.32;99360.31;1808995;79;21055;-76
2022/08/20 08:00:49;;;;;;;1.07;0.98;;;;;;;22.03;73.05;99354.08;1808877;79;21043;-76
2022/08/20 08:03:16;;;;;;;0.80;0.80;;;;;;;22.08;72.68;99361.23;1809095;79;21897;-76
2022/08/20 08:05:45;;;;;;;1.12;1.00;;;;;;;22.14;72.28;99358.05;1807012;79;21605;-76
2022/08/20 08:08:16;;;;;;;1.25;0.90;;;;;;;22.19;70.96;99363.86;1805928;79;21078;-76
2022/08/20 08:10:43;;;;;;;1.00;0.90;;;;;;;22.15;70.35;99356.20;1806311;79;21492;-76
2022/08/20 08:13:11;;;;;;;1.52;0.80;;;;;;;22.16;71.39;99356.58;1806456;79;20997;-76
2022/08/20 08:15:40;;;;;;;2.98;1.07;;;;;;;22.23;72.15;99353.22;1806201;79;21352;-76
2022/08/20 08:18:11;;;;;;;1.75;1.00;;;;;;;22.33;72.10;99349.30;1815035;78;21512;-76
2022/08/20 08:20:40;;;;;;;1.07;0.70;;;;;;;22.43;71.69;99350.69;1815730;79;20991;-77
2022/08/20 08:23:10;;;;;;;1.72;0.70;;;;;;;22.50;71.24;99347.83;1815704;79;21085;-77
2022/08/20 08:25:45;;;;;;;2.85;1.40;;;;;;;22.57;70.24;99340.94;1815997;79;21045;-76
2022/08/20 08:28:12;;;;;;;1.32;0.80;;;;;;;22.62;69.14;99337.36;1814665;79;21057;-76
2022/08/20 08:30:42;;;;;;;1.55;0.80;;;;;;;22.71;68.99;99339.75;1815721;79;21599;-76
2022/08/20 08:33:27;;;;;;;2.50;0.90;;;;;;;22.81;68.58;99342.44;1815365;79;21565;-77
2022/08/20 08:35:55;;;;;;;1.27;1.00;;;;;;;22.88;68.50;99340.94;1816011;79;21119;-76
2022/08/20 08:38:22;;;;;;;3.47;1.10;;;;;;;22.93;68.19;99338.69;1816308;79;21105;-76
2022/08/20 08:40:53;;;;;;;2.80;0.90;;;;;;;22.98;68.46;99333.76;1815959;79;21096;-76
2022/08/20 08:43:23;;;;;;;1.15;0.90;;;;;;;23.02;68.18;99333.49;1815709;79;21228;-76
2022/08/20 08:46:03;;;;;;;1.00;0.85;;;;;;;23.06;67.74;99341.61;1815736;79;20986;-76
2022/08/20 08:48:38;;;;;;;0.70;0.70;;;;;;;23.06;67.48;99337.59;1789381;79;21065;-76
2022/08/20 08:51:11;;;;;;;;;;;;;;;23.08;66.87;99341.00;1818641;78;21034;-76
2022/08/20 08:53:37;;;;;;;2.70;0.70;;;;;;;23.10;66.48;99336.34;1815120;79;20561;-76
2022/08/20 08:56:06;;;;;;;1.60;0.93;;;;;;;23.13;66.08;99334.73;1811020;78;21238;-76
2022/08/20 08:58:34;;;;;;;2.45;0.90;;;;;;;23.15;66.18;99331.44;1806383;79;21030;-76
2022/08/20 09:01:10;;;;;;;3.35;1.30;;;;;;;23.16;66.45;99331.27;1806258;79;21241;-77
2022/08/20 09:03:38;;;;;;;1.07;1.00;;;;;;;23.18;66.62;99334.69;1806633;79;21561;-77
2022/08/20 09:06:06;;;;;;;0.93;0.80;;;;;;;23.21;66.57;99334.05;1806430;79;21074;-77
2022/08/20 09:08:44;;;;;;;2.42;0.75;;;;;;;23.23;65.61;99331.56;1806421;79;21261;-76
2022/08/20 09:11:11;;;;;;;2.67;0.80;;;;;;;23.25;64.13;99332.77;1806161;79;21000;-76
2022/08/20 09:13:38;;;;;;;1.17;1.07;;;;;;;23.23;64.52;99328.88;1806603;79;21138;-76
2022/08/20 09:16:04;;;;;;;1.80;0.80;;;;;;;23.21;63.16;99331.36;1806246;79;21538;-77
2022/08/20 09:18:32;;;;;;;0.85;0.85;;;;;;;23.10;63.11;99330.97;1806382;79;21054;-76
2022/08/20 09:20:59;;;;;;;4.58;0.90;;;;;;;23.03;63.37;99332.48;1806592;79;21121;-76
2022/08/20 09:23:25;;;;;;;1.12;0.70;;;;;;;23.03;64.96;99336.52;1806630;79;21046;-76
2022/08/20 09:25:52;;;;;;;0.80;0.80;;;;;;;23.08;64.89;99335.64;1806308;79;21050;-76
2022/08/20 09:28:18;;;;;;;1.22;0.95;;;;;;;23.08;64.20;99335.64;1806482;79;21050;-76
2022/08/20 09:30:44;;;;;;;0.75;0.75;;;;;;;23.11;64.86;99340.73;1806306;79;21032;-76
2022/08/20 09:33:11;;;;;;;1.82;1.10;;;;;;;23.15;63.97;99343.52;1806291;79;21479;-76
2022/08/20 09:35:39;;;;;;;0.90;0.80;;;;;;;23.17;62.97;99343.72;1806201;79;21582;-76
2022/08/20 09:38:06;;;;;;;1.90;0.70;;;;;;;23.23;63.89;99344.15;1806161;79;20959;-76
2022/08/20 09:40:34;;;;;;;2.60;0.82;;;;;;;23.27;64.24;99341.05;1806404;79;22095;-76
2022/08/20 09:43:02;;;;;;;2.77;1.42;;;;;;;23.32;64.21;99336.12;1806065;79;21011;-76
2022/08/20 09:45:29;;;;;;;1.32;1.05;;;;;;;23.39;64.86;99336.91;1806508;79;21593;-75
2022/08/20 09:47:55;;;;;;;0.85;0.82;;;;;;;23.44;64.79;99342.20;1806251;79;21023;-76
2022/08/20 09:50:22;;;;;;;0.80;0.80;;;;;;;23.51;63.52;99339.81;1806373;79;21581;-76
2022/08/20 09:52:49;;;;;;;2.20;0.80;;;;;;;23.55;62.64;99339.87;1806418;79;21051;-76
2022/08/20 09:55:27;;;;;;;0.65;0.65;;;;;;;23.60;62.25;99338.11;1806550;79;21052;-75
2022/08/20 09:57:53;;;;;;;0.60;0.60;;;;;;;23.64;61.95;99334.17;1806387;79;21721;-76
2022/08/20 10:00:20;;;;;;;1.05;0.70;;;;;;;23.71;61.68;99335.30;1806249;79;21980;-76
2022/08/20 10:02:47;;;;;;;0.68;0.68;;;;;;;23.76;61.19;99332.19;1806523;79;20991;-75
2022/08/20 10:05:13;;;;;;;2.90;0.70;;;;;;;23.82;61.31;99331.63;1806154;79;21000;-75
2022/08/20 10:07:41;;;;;;;2.75;0.70;;;;;;;23.88;61.68;99331.91;1803309;79;20947;-76
2022/08/20 10:10:11;;;;;;;0.80;0.70;;;;;;;23.91;61.57;99339.69;1803549;79;21858;-76
2022/08/20 10:12:40;;;;;;;2.05;0.98;;;;;;;23.92;61.29;99333.34;1803239;79;21059;-76
2022/08/20 10:15:09;;;;;;;0.98;0.90;;;;;;;23.93;61.37;99336.86;1803719;79;21455;-76
2022/08/20 10:17:40;;;;;;;1.22;0.80;;;;;;;23.84;60.39;99335.02;1803089;79;20949;-76
2022/08/20 10:20:09;;;;;;;0.80;0.80;;;;;;;23.73;60.14;99341.36;1805475;78;21059;-76
2022/08/20 10:22:36;;;;;;;0.70;0.70;;;;;;;23.68;60.30;99343.13;1791894;80;21126;-76
2022/08/20 10:25:04;;;;;;;1.02;0.82;;;;;;;23.68;61.73;99343.63;1791599;80;21046;-76
2022/08/20 10:27:31;;;;;;;2.10;1.00;;;;;;;23.73;62.44;99343.55;1791710;80;21463;-76
2022/08/20 10:29:59;;;;;;;1.27;0.75;;;;;;;23.81;63.69;99340.66;1791478;80;20988;-76
2022/08/20 10:32:25;;;;;;;2.67;0.72;;;;;;;23.87;63.22;99344.14;1791742;80;21066;-76
2022/08/20 10:34:52;;;;;;;1.42;0.80;;;;;;;23.92;62.03;99337.84;1791540;80;21261;-76
2022/08/20 10:37:21;;;;;;;0.90;0.90;;;;;;;23.99;62.29;99341.67;1791972;80;21025;-76
2022/08/20 10:39:48;;;;;;;4.47;0.93;;;;;;;24.06;62.19;99342.78;1791669;80;20995;-76
2022/08/20 10:42:14;;;;;;;2.35;0.98;;;;;;;24.11;62.62;99335.13;1791951;80;21046;-76
2022/08/20 10:44:41;;;;;;;1.80;1.05;;;;;;;24.15;60.18;99337.53;1791594;80;21058;-76
2022/08/20 10:47:27;;;;;;;1.42;0.72;;;;;;;24.07;58.71;99332.39;1791644;80;21357;-76
2022/08/20 10:49:56;;;;;;;4.83;0.93;;;;;;;23.97;58.72;99340.94;1791316;80;21006;-76
2022/08/20 10:52:22;;;;;;;7.00;1.07;;;;;;;23.90;60.03;99340.66;1791521;80;21015;-76
2022/08/20 10:54:50;;;;;;;1.25;1.00;;;;;;;23.90;60.36;99335.80;1791456;80;21031;-76
2022/08/20 10:57:24;;;;;;;0.85;0.85;;;;;;;23.94;61.68;99333.20;1758892;80;21132;-76
2022/08/20 10:59:52;;;;;;;5.85;1.35;;;;;;;23.98;61.81;99337.27;1790912;80;21116;-76
2022/08/20 11:02:19;;;;;;;2.55;1.12;;;;;;;24.03;60.81;99338.20;1802928;79;21059;-76
2022/08/20 11:04:46;;;;;;;1.00;0.90;;;;;;;24.00;59.85;99337.97;1810071;79;21082;-76
2022/08/20 11:07:27;;;;;;;2.40;1.10;;;;;;;23.93;59.28;99335.52;1809931;79;20988;-76
2022/08/20 11:09:53;;;;;;;1.85;0.93;;;;;;;23.85;59.63;99337.56;1810350;79;21655;-76
2022/08/20 11:12:21;;;;;;;2.58;1.10;;;;;;;23.85;61.14;99338.06;1809938;79;21650;-76
2022/08/20 11:14:48;;;;;;;1.20;1.20;;;;;;;23.83;61.54;99333.34;1810324;79;20976;-75
2022/08/20 11:17:27;;;;;;;2.20;1.00;;;;;;;23.77;62.70;99335.20;1809688;79;21035;-77
2022/08/20 11:19:55;;;;;;;2.55;1.42;;;;;;;23.74;63.55;99333.17;1810108;79;21027;-76
2022/08/20 11:22:21;;;;;;;2.75;1.10;;;;;;;23.77;63.64;99332.05;1810167;79;20998;-76
2022/08/20 11:24:47;;;;;;;1.25;1.20;;;;;;;23.80;64.00;99329.55;1809829;79;21593;-77
2022/08/20 11:27:27;;;;;;;1.10;1.10;;;;;;;23.80;64.20;99328.21;1810040;79;21093;-76
2022/08/20 11:29:54;;;;;;;3.30;1.00;;;;;;;23.79;64.35;99328.72;1782355;79;21063;-77
2022/08/20 11:32:21;;;;;;;3.05;1.40;;;;;;;23.79;64.14;99329.19;1809987;79;21039;-76
2022/08/20 11:34:47;;;;;;;1.80;1.12;;;;;;;23.79;64.29;99327.38;1810174;79;21015;-76
2022/08/20 11:37:15;;;;;;;2.62;1.20;;;;;;;23.79;64.57;99322.48;1809935;79;21186;-76
2022/08/20 11:39:41;;;;;;;2.35;1.20;;;;;;;23.80;64.43;99318.81;1810258;79;21020;-76
2022/08/20 11:42:08;;;;;;;1.60;1.30;;;;;;;23.77;64.53;99323.13;1809872;79;21083;-76
2022/08/20 11:44:34;;;;;;;1.67;1.50;;;;;;;23.77;64.20;99325.80;1809924;79;21050;-76
2022/08/20 11:47:02;;;;;;;2.70;2.50;;;;;;;23.77;64.62;99328.48;1809752;79;22043;-76